sensor_id;sensor_type;location;lat;lon;timestamp;temperature;humidity
7518;DHT22;3800;48.922;9.444;2023-08-06T00:00:25;14.60;99.90
7518;DHT22;3800;48.922;9.444;2023-08-06T00:02:53;14.60;99.90
7518;DHT22;3800;48.922;9.444;2023-08-06T00:05:22;14.60;99.90
7518;DHT22;3800;48.922;9.444;2023-08-06T00:07:50;14.60;99.90
7518;DHT22;3800;48.922;9.444;2023-08-06T00:10:19;14.60;99.90
7518;DHT22;3800;48.922;9.444;2023-08-06T00:12:48;14.60;99.90
7518;DHT22;3800;48.922;9.444;2023-08-06T00:15:16;14.60;99.90
7518;DHT22;3800;48.922;9.444;2023-08-06T00:17:45;14.60;99.90
7518;DHT22;3800;48.922;9.444;2023-08-06T00:20:14;14.60;99.90
7518;DHT22;3800;48.922;9.444;2023-08-06T00:22:42;14.60;99.90
7518;DHT22;3800;48.922;9.444;2023-08-06T00:25:12;14.60;99.90
7518;DHT22;3800;48.922;9.444;2023-08-06T00:27:40;14.60;99.90
7518;DHT22;3800;48.922;9.444;2023-08-06T00:30:09;14.60;99.90
7518;DHT22;3800;48.922;9.444;2023-08-06T00:32:39;14.60;99.90
7518;DHT22;3800;48.922;9.444;2023-08-06T00:35:07;14.60;99.90
7518;DHT22;3800;48.922;9.444;2023-08-06T00:37:36;14.60;99.90
7518;DHT22;3800;48.922;9.444;2023-08-06T00:40:06;14.70;99.90
7518;DHT22;3800;48.922;9.444;2023-08-06T00:42:34;14.70;99.90
7518;DHT22;3800;48.922;9.444;2023-08-06T00:45:04;14.70;99.90
7518;DHT22;3800;48.922;9.444;2023-08-06T00:47:34;14.70;99.90
7518;DHT22;3800;48.922;9.444;2023-08-06T00:50:02;14.70;99.90
7518;DHT22;3800;48.922;9.444;2023-08-06T00:52:32;14.70;99.90
7518;DHT22;3800;48.922;9.444;2023-08-06T00:55:00;14.70;99.90
7518;DHT22;3800;48.922;9.444;2023-08-06T00:57:28;14.70;99.90
7518;DHT22;3800;48.922;9.444;2023-08-06T00:59:57;14.70;99.90
7518;DHT22;3800;48.922;9.444;2023-08-06T01:02:25;14.70;99.90
7518;DHT22;3800;48.922;9.444;2023-08-06T01:04:53;14.70;99.90
7518;DHT22;3800;48.922;9.444;2023-08-06T01:10:44;14.70;99.90
7518;DHT22;3800;48.922;9.444;2023-08-06T01:13:13;14.70;99.90
7518;DHT22;3800;48.922;9.444;2023-08-06T01:15:46;14.80;99.90
7518;DHT22;3800;48.922;9.444;2023-08-06T01:18:12;14.80;99.90
7518;DHT22;3800;48.922;9.444;2023-08-06T01:20:42;14.80;99.90
7518;DHT22;3800;48.922;9.444;2023-08-06T01:23:11;14.80;99.90
7518;DHT22;3800;48.922;9.444;2023-08-06T01:25:43;14.80;99.90
7518;DHT22;3800;48.922;9.444;2023-08-06T01:28:11;14.70;99.90
7518;DHT22;3800;48.922;9.444;2023-08-06T01:30:37;14.70;99.90
7518;DHT22;3800;48.922;9.444;2023-08-06T01:33:05;14.70;99.90
7518;DHT22;3800;48.922;9.444;2023-08-06T01:35:33;14.70;99.90
7518;DHT22;3800;48.922;9.444;2023-08-06T01:38:02;14.60;99.90
7518;DHT22;3800;48.922;9.444;2023-08-06T01:40:31;14.70;99.90
7518;DHT22;3800;48.922;9.444;2023-08-06T01:43:00;14.60;99.90
7518;DHT22;3800;48.922;9.444;2023-08-06T01:45:29;14.60;99.90
7518;DHT22;3800;48.922;9.444;2023-08-06T01:47:58;14.60;99.90
7518;DHT22;3800;48.922;9.444;2023-08-06T01:50:26;14.50;99.90
7518;DHT22;3800;48.922;9.444;2023-08-06T01:52:55;14.50;99.90
7518;DHT22;3800;48.922;9.444;2023-08-06T01:55:24;14.50;99.90
7518;DHT22;3800;48.922;9.444;2023-08-06T01:57:52;14.40;99.90
7518;DHT22;3800;48.922;9.444;2023-08-06T02:00:20;14.40;99.90
7518;DHT22;3800;48.922;9.444;2023-08-06T02:02:49;14.50;99.90
7518;DHT22;3800;48.922;9.444;2023-08-06T02:05:19;14.50;99.90
7518;DHT22;3800;48.922;9.444;2023-08-06T02:07:47;14.50;99.90
7518;DHT22;3800;48.922;9.444;2023-08-06T02:10:15;14.50;99.90
7518;DHT22;3800;48.922;9.444;2023-08-06T02:12:45;14.50;99.90
7518;DHT22;3800;48.922;9.444;2023-08-06T02:15:13;14.50;99.90
7518;DHT22;3800;48.922;9.444;2023-08-06T02:17:42;14.50;99.90
7518;DHT22;3800;48.922;9.444;2023-08-06T02:20:10;14.50;99.90
7518;DHT22;3800;48.922;9.444;2023-08-06T02:22:38;14.50;99.90
7518;DHT22;3800;48.922;9.444;2023-08-06T02:25:07;14.50;99.90
7518;DHT22;3800;48.922;9.444;2023-08-06T02:27:36;14.50;99.90
7518;DHT22;3800;48.922;9.444;2023-08-06T02:30:05;14.40;99.90
7518;DHT22;3800;48.922;9.444;2023-08-06T02:32:35;14.40;99.90
7518;DHT22;3800;48.922;9.444;2023-08-06T02:35:04;14.40;99.90
7518;DHT22;3800;48.922;9.444;2023-08-06T02:37:34;14.30;99.90
7518;DHT22;3800;48.922;9.444;2023-08-06T02:40:03;14.30;99.90
7518;DHT22;3800;48.922;9.444;2023-08-06T02:42:32;14.30;99.90
7518;DHT22;3800;48.922;9.444;2023-08-06T02:45:00;14.30;99.90
7518;DHT22;3800;48.922;9.444;2023-08-06T02:47:29;14.30;99.90
7518;DHT22;3800;48.922;9.444;2023-08-06T02:49:57;14.30;99.90
7518;DHT22;3800;48.922;9.444;2023-08-06T02:52:26;14.30;99.90
7518;DHT22;3800;48.922;9.444;2023-08-06T02:54:54;14.30;99.90
7518;DHT22;3800;48.922;9.444;2023-08-06T02:57:23;14.30;99.90
7518;DHT22;3800;48.922;9.444;2023-08-06T02:59:52;14.30;99.90
7518;DHT22;3800;48.922;9.444;2023-08-06T03:02:20;14.30;99.90
7518;DHT22;3800;48.922;9.444;2023-08-06T03:04:49;14.30;99.90
7518;DHT22;3800;48.922;9.444;2023-08-06T03:07:17;14.30;99.90
7518;DHT22;3800;48.922;9.444;2023-08-06T03:09:45;14.30;99.90
7518;DHT22;3800;48.922;9.444;2023-08-06T03:12:14;14.30;99.90
7518;DHT22;3800;48.922;9.444;2023-08-06T03:14:43;14.30;99.90
7518;DHT22;3800;48.922;9.444;2023-08-06T03:17:12;14.30;99.90
7518;DHT22;3800;48.922;9.444;2023-08-06T03:19:42;14.30;99.90
7518;DHT22;3800;48.922;9.444;2023-08-06T03:22:11;14.30;99.90
7518;DHT22;3800;48.922;9.444;2023-08-06T03:24:39;14.30;99.90
7518;DHT22;3800;48.922;9.444;2023-08-06T03:27:07;14.30;99.90
7518;DHT22;3800;48.922;9.444;2023-08-06T03:29:36;14.20;99.90
7518;DHT22;3800;48.922;9.444;2023-08-06T03:32:08;14.20;99.90
7518;DHT22;3800;48.922;9.444;2023-08-06T03:34:38;14.20;99.90
7518;DHT22;3800;48.922;9.444;2023-08-06T03:37:07;14.20;99.90
7518;DHT22;3800;48.922;9.444;2023-08-06T03:39:35;14.10;99.90
7518;DHT22;3800;48.922;9.444;2023-08-06T03:42:04;14.10;99.90
7518;DHT22;3800;48.922;9.444;2023-08-06T03:44:33;14.10;99.90
7518;DHT22;3800;48.922;9.444;2023-08-06T03:47:02;14.10;99.90
7518;DHT22;3800;48.922;9.444;2023-08-06T03:49:30;14.10;99.90
7518;DHT22;3800;48.922;9.444;2023-08-06T03:51:59;14.10;99.90
7518;DHT22;3800;48.922;9.444;2023-08-06T03:54:28;14.10;99.90
7518;DHT22;3800;48.922;9.444;2023-08-06T03:56:56;14.10;99.90
7518;DHT22;3800;48.922;9.444;2023-08-06T03:59:24;14.10;99.90
7518;DHT22;3800;48.922;9.444;2023-08-06T04:01:52;14.10;99.90
7518;DHT22;3800;48.922;9.444;2023-08-06T04:04:21;14.10;99.90
7518;DHT22;3800;48.922;9.444;2023-08-06T04:06:50;14.10;99.90
7518;DHT22;3800;48.922;9.444;2023-08-06T04:09:18;14.10;99.90
7518;DHT22;3800;48.922;9.444;2023-08-06T04:11:46;14.00;99.90
7518;DHT22;3800;48.922;9.444;2023-08-06T04:14:15;14.00;99.90
7518;DHT22;3800;48.922;9.444;2023-08-06T04:16:43;14.00;99.90
7518;DHT22;3800;48.922;9.444;2023-08-06T04:19:12;14.10;99.90
7518;DHT22;3800;48.922;9.444;2023-08-06T04:21:40;14.00;99.90
7518;DHT22;3800;48.922;9.444;2023-08-06T04:24:09;14.00;99.90
7518;DHT22;3800;48.922;9.444;2023-08-06T04:26:37;14.00;99.90
7518;DHT22;3800;48.922;9.444;2023-08-06T04:29:06;14.00;99.90
7518;DHT22;3800;48.922;9.444;2023-08-06T04:31:35;14.00;99.90
7518;DHT22;3800;48.922;9.444;2023-08-06T04:34:03;14.00;99.90
7518;DHT22;3800;48.922;9.444;2023-08-06T04:36:32;14.10;99.90
7518;DHT22;3800;48.922;9.444;2023-08-06T04:39:00;14.00;99.90
7518;DHT22;3800;48.922;9.444;2023-08-06T04:41:29;14.00;99.90
7518;DHT22;3800;48.922;9.444;2023-08-06T04:43:58;14.10;99.90
7518;DHT22;3800;48.922;9.444;2023-08-06T04:46:26;14.00;99.90
7518;DHT22;3800;48.922;9.444;2023-08-06T04:48:55;14.00;99.90
7518;DHT22;3800;48.922;9.444;2023-08-06T04:51:24;14.00;99.90
7518;DHT22;3800;48.922;9.444;2023-08-06T04:53:52;14.00;99.90
7518;DHT22;3800;48.922;9.444;2023-08-06T04:56:20;14.00;99.90
7518;DHT22;3800;48.922;9.444;2023-08-06T04:58:49;14.00;99.90
7518;DHT22;3800;48.922;9.444;2023-08-06T05:01:18;14.00;99.90
7518;DHT22;3800;48.922;9.444;2023-08-06T05:03:47;14.00;99.90
7518;DHT22;3800;48.922;9.444;2023-08-06T05:06:14;14.00;99.90
7518;DHT22;3800;48.922;9.444;2023-08-06T05:08:42;14.00;99.90
7518;DHT22;3800;48.922;9.444;2023-08-06T05:11:13;14.00;99.90
7518;DHT22;3800;48.922;9.444;2023-08-06T05:13:41;13.90;99.90
7518;DHT22;3800;48.922;9.444;2023-08-06T05:16:09;14.00;99.90
7518;DHT22;3800;48.922;9.444;2023-08-06T05:18:38;14.00;99.90
7518;DHT22;3800;48.922;9.444;2023-08-06T05:21:07;14.00;99.90
7518;DHT22;3800;48.922;9.444;2023-08-06T05:23:35;14.00;99.90
7518;DHT22;3800;48.922;9.444;2023-08-06T05:26:04;14.10;99.90
7518;DHT22;3800;48.922;9.444;2023-08-06T05:28:32;14.10;99.90
7518;DHT22;3800;48.922;9.444;2023-08-06T05:31:05;14.10;99.90
7518;DHT22;3800;48.922;9.444;2023-08-06T05:33:33;14.10;99.90
7518;DHT22;3800;48.922;9.444;2023-08-06T05:36:01;14.10;99.90
7518;DHT22;3800;48.922;9.444;2023-08-06T05:38:29;14.10;99.90
7518;DHT22;3800;48.922;9.444;2023-08-06T05:40:58;14.10;99.90
7518;DHT22;3800;48.922;9.444;2023-08-06T05:43:27;14.20;99.90
7518;DHT22;3800;48.922;9.444;2023-08-06T05:45:56;14.20;99.90
7518;DHT22;3800;48.922;9.444;2023-08-06T05:48:23;14.30;99.90
7518;DHT22;3800;48.922;9.444;2023-08-06T05:50:52;14.40;99.90
7518;DHT22;3800;48.922;9.444;2023-08-06T05:53:20;14.50;99.90
7518;DHT22;3800;48.922;9.444;2023-08-06T05:55:49;14.70;99.90
7518;DHT22;3800;48.922;9.444;2023-08-06T05:58:17;14.70;99.90
7518;DHT22;3800;48.922;9.444;2023-08-06T06:00:45;14.80;99.90
7518;DHT22;3800;48.922;9.444;2023-08-06T06:03:14;14.80;99.90
7518;DHT22;3800;48.922;9.444;2023-08-06T06:05:42;14.80;99.90
7518;DHT22;3800;48.922;9.444;2023-08-06T06:08:11;14.80;99.90
7518;DHT22;3800;48.922;9.444;2023-08-06T06:10:39;14.70;99.90
7518;DHT22;3800;48.922;9.444;2023-08-06T06:13:07;14.70;99.90
7518;DHT22;3800;48.922;9.444;2023-08-06T06:15:36;14.70;99.90
7518;DHT22;3800;48.922;9.444;2023-08-06T06:18:05;14.70;99.90
7518;DHT22;3800;48.922;9.444;2023-08-06T06:20:33;14.70;99.90
7518;DHT22;3800;48.922;9.444;2023-08-06T06:23:01;14.70;99.90
7518;DHT22;3800;48.922;9.444;2023-08-06T06:25:30;14.80;99.90
7518;DHT22;3800;48.922;9.444;2023-08-06T06:27:59;14.80;99.90
7518;DHT22;3800;48.922;9.444;2023-08-06T06:30:28;14.80;99.90
7518;DHT22;3800;48.922;9.444;2023-08-06T06:32:56;14.70;99.90
7518;DHT22;3800;48.922;9.444;2023-08-06T06:35:24;14.70;99.90
7518;DHT22;3800;48.922;9.444;2023-08-06T06:37:52;14.70;99.90
7518;DHT22;3800;48.922;9.444;2023-08-06T06:40:21;14.70;99.90
7518;DHT22;3800;48.922;9.444;2023-08-06T06:42:49;14.80;99.90
7518;DHT22;3800;48.922;9.444;2023-08-06T06:45:17;14.80;99.90
7518;DHT22;3800;48.922;9.444;2023-08-06T06:47:45;14.80;99.90
7518;DHT22;3800;48.922;9.444;2023-08-06T06:50:14;14.80;99.90
7518;DHT22;3800;48.922;9.444;2023-08-06T06:52:42;14.80;99.90
7518;DHT22;3800;48.922;9.444;2023-08-06T06:55:10;14.70;99.90
7518;DHT22;3800;48.922;9.444;2023-08-06T06:57:39;14.70;99.90
7518;DHT22;3800;48.922;9.444;2023-08-06T07:00:08;14.80;99.90
7518;DHT22;3800;48.922;9.444;2023-08-06T07:02:37;14.80;99.90
7518;DHT22;3800;48.922;9.444;2023-08-06T07:05:06;14.80;99.90
7518;DHT22;3800;48.922;9.444;2023-08-06T07:07:34;14.80;99.90
7518;DHT22;3800;48.922;9.444;2023-08-06T07:10:04;14.70;99.90
7518;DHT22;3800;48.922;9.444;2023-08-06T07:12:35;14.60;99.90
7518;DHT22;3800;48.922;9.444;2023-08-06T07:15:05;14.60;99.90
7518;DHT22;3800;48.922;9.444;2023-08-06T07:17:34;14.60;99.90
7518;DHT22;3800;48.922;9.444;2023-08-06T07:20:02;14.50;99.90
7518;DHT22;3800;48.922;9.444;2023-08-06T07:22:31;14.50;99.90
7518;DHT22;3800;48.922;9.444;2023-08-06T07:24:59;14.50;99.90
7518;DHT22;3800;48.922;9.444;2023-08-06T07:27:28;14.50;99.90
7518;DHT22;3800;48.922;9.444;2023-08-06T07:29:56;14.50;99.90
7518;DHT22;3800;48.922;9.444;2023-08-06T07:32:25;14.60;99.90
7518;DHT22;3800;48.922;9.444;2023-08-06T07:34:53;14.70;99.90
7518;DHT22;3800;48.922;9.444;2023-08-06T07:37:21;14.80;99.90
7518;DHT22;3800;48.922;9.444;2023-08-06T07:39:50;14.90;99.90
7518;DHT22;3800;48.922;9.444;2023-08-06T07:42:20;14.90;99.90
7518;DHT22;3800;48.922;9.444;2023-08-06T07:44:53;14.90;99.90
7518;DHT22;3800;48.922;9.444;2023-08-06T07:47:22;14.80;99.90
7518;DHT22;3800;48.922;9.444;2023-08-06T07:49:51;14.80;99.90
7518;DHT22;3800;48.922;9.444;2023-08-06T07:52:19;14.80;99.90
7518;DHT22;3800;48.922;9.444;2023-08-06T07:54:47;14.80;99.90
7518;DHT22;3800;48.922;9.444;2023-08-06T07:57:16;14.90;99.90
7518;DHT22;3800;48.922;9.444;2023-08-06T07:59:45;14.90;99.90
7518;DHT22;3800;48.922;9.444;2023-08-06T08:02:14;14.90;99.90
7518;DHT22;3800;48.922;9.444;2023-08-06T08:04:43;14.90;99.90
7518;DHT22;3800;48.922;9.444;2023-08-06T08:07:12;14.90;99.90
7518;DHT22;3800;48.922;9.444;2023-08-06T08:09:40;14.80;99.90
7518;DHT22;3800;48.922;9.444;2023-08-06T08:12:08;14.90;99.90
7518;DHT22;3800;48.922;9.444;2023-08-06T08:14:39;14.90;99.90
7518;DHT22;3800;48.922;9.444;2023-08-06T08:17:07;14.90;99.90
7518;DHT22;3800;48.922;9.444;2023-08-06T08:19:36;14.90;99.90
7518;DHT22;3800;48.922;9.444;2023-08-06T08:22:05;14.80;99.90
7518;DHT22;3800;48.922;9.444;2023-08-06T08:24:33;14.90;99.90
7518;DHT22;3800;48.922;9.444;2023-08-06T08:27:02;14.80;99.90
7518;DHT22;3800;48.922;9.444;2023-08-06T08:29:30;14.80;99.90
7518;DHT22;3800;48.922;9.444;2023-08-06T08:32:00;14.80;99.90
7518;DHT22;3800;48.922;9.444;2023-08-06T08:34:28;14.80;99.90
7518;DHT22;3800;48.922;9.444;2023-08-06T08:36:56;14.90;99.90
7518;DHT22;3800;48.922;9.444;2023-08-06T08:39:25;15.00;99.90
7518;DHT22;3800;48.922;9.444;2023-08-06T08:41:53;15.10;99.90
7518;DHT22;3800;48.922;9.444;2023-08-06T08:44:21;15.20;99.90
7518;DHT22;3800;48.922;9.444;2023-08-06T08:46:50;15.40;99.90
7518;DHT22;3800;48.922;9.444;2023-08-06T08:49:18;15.60;99.90
7518;DHT22;3800;48.922;9.444;2023-08-06T08:51:46;15.60;99.90
7518;DHT22;3800;48.922;9.444;2023-08-06T08:54:15;15.70;99.90
7518;DHT22;3800;48.922;9.444;2023-08-06T08:56:46;15.60;99.90
7518;DHT22;3800;48.922;9.444;2023-08-06T08:59:16;15.60;99.90
7518;DHT22;3800;48.922;9.444;2023-08-06T09:01:45;15.60;99.90
7518;DHT22;3800;48.922;9.444;2023-08-06T09:04:14;15.50;99.90
7518;DHT22;3800;48.922;9.444;2023-08-06T09:06:42;15.50;99.90
7518;DHT22;3800;48.922;9.444;2023-08-06T09:09:12;15.40;99.90
7518;DHT22;3800;48.922;9.444;2023-08-06T09:11:42;15.40;99.90
7518;DHT22;3800;48.922;9.444;2023-08-06T09:14:08;15.30;99.90
7518;DHT22;3800;48.922;9.444;2023-08-06T09:16:36;15.30;99.90
7518;DHT22;3800;48.922;9.444;2023-08-06T09:19:10;15.40;99.90
7518;DHT22;3800;48.922;9.444;2023-08-06T09:21:38;15.40;99.90
7518;DHT22;3800;48.922;9.444;2023-08-06T09:24:11;15.40;99.90
7518;DHT22;3800;48.922;9.444;2023-08-06T09:26:40;15.40;99.90
7518;DHT22;3800;48.922;9.444;2023-08-06T09:29:09;15.20;99.90
7518;DHT22;3800;48.922;9.444;2023-08-06T09:31:43;15.10;99.90
7518;DHT22;3800;48.922;9.444;2023-08-06T09:34:18;14.90;99.90
7518;DHT22;3800;48.922;9.444;2023-08-06T09:36:46;14.80;99.90
7518;DHT22;3800;48.922;9.444;2023-08-06T09:39:15;14.80;99.90
7518;DHT22;3800;48.922;9.444;2023-08-06T09:41:44;14.70;99.90
7518;DHT22;3800;48.922;9.444;2023-08-06T09:44:18;14.70;99.90
7518;DHT22;3800;48.922;9.444;2023-08-06T09:46:48;14.60;99.90
7518;DHT22;3800;48.922;9.444;2023-08-06T09:49:18;14.60;99.90
7518;DHT22;3800;48.922;9.444;2023-08-06T09:51:46;14.70;99.90
7518;DHT22;3800;48.922;9.444;2023-08-06T09:54:15;14.80;99.90
7518;DHT22;3800;48.922;9.444;2023-08-06T09:56:43;15.00;99.90
7518;DHT22;3800;48.922;9.444;2023-08-06T09:59:12;15.10;99.90
7518;DHT22;3800;48.922;9.444;2023-08-06T10:01:41;15.20;99.90
7518;DHT22;3800;48.922;9.444;2023-08-06T10:04:09;15.20;99.90
7518;DHT22;3800;48.922;9.444;2023-08-06T10:06:38;15.20;99.90
7518;DHT22;3800;48.922;9.444;2023-08-06T10:09:06;15.20;99.90
7518;DHT22;3800;48.922;9.444;2023-08-06T10:11:36;15.10;99.90
7518;DHT22;3800;48.922;9.444;2023-08-06T10:14:08;15.10;99.90
7518;DHT22;3800;48.922;9.444;2023-08-06T10:16:38;15.10;99.90
7518;DHT22;3800;48.922;9.444;2023-08-06T10:19:07;15.10;99.90
7518;DHT22;3800;48.922;9.444;2023-08-06T10:21:34;15.10;99.90
7518;DHT22;3800;48.922;9.444;2023-08-06T10:24:02;15.10;99.90
7518;DHT22;3800;48.922;9.444;2023-08-06T10:26:31;15.00;99.90
7518;DHT22;3800;48.922;9.444;2023-08-06T10:28:59;14.90;99.90
7518;DHT22;3800;48.922;9.444;2023-08-06T10:31:53;15.00;99.90
7518;DHT22;3800;48.922;9.444;2023-08-06T10:34:21;15.00;99.90
7518;DHT22;3800;48.922;9.444;2023-08-06T10:36:49;15.00;99.90
7518;DHT22;3800;48.922;9.444;2023-08-06T10:39:19;14.90;99.90
7518;DHT22;3800;48.922;9.444;2023-08-06T10:41:48;15.00;99.90
7518;DHT22;3800;48.922;9.444;2023-08-06T10:44:17;15.00;99.90
7518;DHT22;3800;48.922;9.444;2023-08-06T10:46:45;15.00;99.90
7518;DHT22;3800;48.922;9.444;2023-08-06T10:49:13;15.10;99.90
7518;DHT22;3800;48.922;9.444;2023-08-06T10:51:42;15.10;99.90
7518;DHT22;3800;48.922;9.444;2023-08-06T10:54:12;15.00;99.90
7518;DHT22;3800;48.922;9.444;2023-08-06T10:56:40;15.00;99.90
7518;DHT22;3800;48.922;9.444;2023-08-06T10:59:09;15.00;99.90
7518;DHT22;3800;48.922;9.444;2023-08-06T11:01:37;15.00;99.90
7518;DHT22;3800;48.922;9.444;2023-08-06T11:04:06;14.90;99.90
7518;DHT22;3800;48.922;9.444;2023-08-06T11:06:34;14.90;99.90
7518;DHT22;3800;48.922;9.444;2023-08-06T11:09:03;14.90;99.90
7518;DHT22;3800;48.922;9.444;2023-08-06T11:11:31;14.90;99.90
7518;DHT22;3800;48.922;9.444;2023-08-06T11:14:00;14.90;99.90
7518;DHT22;3800;48.922;9.444;2023-08-06T11:16:28;14.80;99.90
7518;DHT22;3800;48.922;9.444;2023-08-06T11:18:57;14.80;99.90
7518;DHT22;3800;48.922;9.444;2023-08-06T11:21:26;14.80;99.90
7518;DHT22;3800;48.922;9.444;2023-08-06T11:23:55;14.80;99.90
7518;DHT22;3800;48.922;9.444;2023-08-06T11:26:23;14.80;99.90
7518;DHT22;3800;48.922;9.444;2023-08-06T11:28:51;14.80;99.90
7518;DHT22;3800;48.922;9.444;2023-08-06T11:31:20;14.70;99.90
7518;DHT22;3800;48.922;9.444;2023-08-06T11:33:49;14.70;99.90
7518;DHT22;3800;48.922;9.444;2023-08-06T11:36:16;14.60;99.90
7518;DHT22;3800;48.922;9.444;2023-08-06T11:38:44;14.60;99.90
7518;DHT22;3800;48.922;9.444;2023-08-06T11:41:14;14.60;99.90
7518;DHT22;3800;48.922;9.444;2023-08-06T11:43:45;14.60;99.90
7518;DHT22;3800;48.922;9.444;2023-08-06T11:46:10;14.60;99.90
7518;DHT22;3800;48.922;9.444;2023-08-06T11:48:50;14.70;99.90
7518;DHT22;3800;48.922;9.444;2023-08-06T11:51:18;14.70;99.90
7518;DHT22;3800;48.922;9.444;2023-08-06T11:53:51;14.70;99.90
7518;DHT22;3800;48.922;9.444;2023-08-06T11:56:18;14.60;99.90
7518;DHT22;3800;48.922;9.444;2023-08-06T11:58:46;14.60;99.90
7518;DHT22;3800;48.922;9.444;2023-08-06T12:01:14;14.60;99.90
7518;DHT22;3800;48.922;9.444;2023-08-06T12:03:43;14.50;99.90
7518;DHT22;3800;48.922;9.444;2023-08-06T12:06:11;14.40;99.90
7518;DHT22;3800;48.922;9.444;2023-08-06T12:08:39;14.30;99.90
7518;DHT22;3800;48.922;9.444;2023-08-06T12:11:08;14.20;99.90
7518;DHT22;3800;48.922;9.444;2023-08-06T12:13:36;14.20;99.90
7518;DHT22;3800;48.922;9.444;2023-08-06T12:16:05;14.10;99.90
7518;DHT22;3800;48.922;9.444;2023-08-06T12:18:33;14.00;99.90
7518;DHT22;3800;48.922;9.444;2023-08-06T12:21:02;14.00;99.90
7518;DHT22;3800;48.922;9.444;2023-08-06T12:23:30;13.90;99.90
7518;DHT22;3800;48.922;9.444;2023-08-06T12:25:59;13.80;99.90
7518;DHT22;3800;48.922;9.444;2023-08-06T12:28:27;13.80;99.90
7518;DHT22;3800;48.922;9.444;2023-08-06T12:30:55;13.80;99.90
7518;DHT22;3800;48.922;9.444;2023-08-06T12:33:24;13.80;99.90
7518;DHT22;3800;48.922;9.444;2023-08-06T12:35:52;13.70;99.90
7518;DHT22;3800;48.922;9.444;2023-08-06T12:38:21;13.60;99.90
7518;DHT22;3800;48.922;9.444;2023-08-06T12:40:49;13.60;99.90
7518;DHT22;3800;48.922;9.444;2023-08-06T12:43:18;13.60;99.90
7518;DHT22;3800;48.922;9.444;2023-08-06T12:45:47;13.60;99.90
7518;DHT22;3800;48.922;9.444;2023-08-06T12:48:15;13.60;99.90
7518;DHT22;3800;48.922;9.444;2023-08-06T12:50:43;13.60;99.90
7518;DHT22;3800;48.922;9.444;2023-08-06T12:53:11;13.60;99.90
7518;DHT22;3800;48.922;9.444;2023-08-06T12:55:40;13.60;99.90
7518;DHT22;3800;48.922;9.444;2023-08-06T12:58:08;13.70;99.90
7518;DHT22;3800;48.922;9.444;2023-08-06T13:00:37;13.70;99.90
7518;DHT22;3800;48.922;9.444;2023-08-06T13:03:05;13.70;99.90
7518;DHT22;3800;48.922;9.444;2023-08-06T13:05:35;13.70;99.90
7518;DHT22;3800;48.922;9.444;2023-08-06T13:08:03;13.70;99.90
7518;DHT22;3800;48.922;9.444;2023-08-06T13:10:32;13.70;99.90
7518;DHT22;3800;48.922;9.444;2023-08-06T13:13:00;13.70;99.90
7518;DHT22;3800;48.922;9.444;2023-08-06T13:15:29;13.70;99.90
7518;DHT22;3800;48.922;9.444;2023-08-06T13:17:57;13.80;99.90
7518;DHT22;3800;48.922;9.444;2023-08-06T13:20:25;13.80;99.90
7518;DHT22;3800;48.922;9.444;2023-08-06T13:22:54;13.90;99.90
7518;DHT22;3800;48.922;9.444;2023-08-06T13:25:23;13.90;99.90
7518;DHT22;3800;48.922;9.444;2023-08-06T13:27:51;14.00;99.90
7518;DHT22;3800;48.922;9.444;2023-08-06T13:30:20;14.00;99.90
7518;DHT22;3800;48.922;9.444;2023-08-06T13:32:50;14.10;99.90
7518;DHT22;3800;48.922;9.444;2023-08-06T13:35:19;14.10;99.90
7518;DHT22;3800;48.922;9.444;2023-08-06T13:37:48;14.10;99.90
7518;DHT22;3800;48.922;9.444;2023-08-06T13:40:17;14.20;99.90
7518;DHT22;3800;48.922;9.444;2023-08-06T13:42:45;14.20;99.90
7518;DHT22;3800;48.922;9.444;2023-08-06T13:45:13;14.20;99.90
7518;DHT22;3800;48.922;9.444;2023-08-06T13:47:42;14.20;99.90
7518;DHT22;3800;48.922;9.444;2023-08-06T13:50:11;14.30;99.90
7518;DHT22;3800;48.922;9.444;2023-08-06T13:52:39;14.30;99.90
7518;DHT22;3800;48.922;9.444;2023-08-06T13:55:07;14.30;99.90
7518;DHT22;3800;48.922;9.444;2023-08-06T13:57:36;14.30;99.90
7518;DHT22;3800;48.922;9.444;2023-08-06T14:00:05;14.30;99.90
7518;DHT22;3800;48.922;9.444;2023-08-06T14:02:34;14.40;99.90
7518;DHT22;3800;48.922;9.444;2023-08-06T14:05:03;14.40;99.90
7518;DHT22;3800;48.922;9.444;2023-08-06T14:07:31;14.50;99.90
7518;DHT22;3800;48.922;9.444;2023-08-06T14:10:00;14.50;99.90
7518;DHT22;3800;48.922;9.444;2023-08-06T14:12:28;14.50;99.90
7518;DHT22;3800;48.922;9.444;2023-08-06T14:14:56;14.50;99.90
7518;DHT22;3800;48.922;9.444;2023-08-06T14:17:24;14.60;99.90
7518;DHT22;3800;48.922;9.444;2023-08-06T14:19:53;14.70;99.90
7518;DHT22;3800;48.922;9.444;2023-08-06T14:22:21;14.80;99.90
7518;DHT22;3800;48.922;9.444;2023-08-06T14:24:51;15.00;99.90
7518;DHT22;3800;48.922;9.444;2023-08-06T14:27:20;15.00;99.90
7518;DHT22;3800;48.922;9.444;2023-08-06T14:29:48;15.10;99.90
7518;DHT22;3800;48.922;9.444;2023-08-06T14:32:16;15.20;99.90
7518;DHT22;3800;48.922;9.444;2023-08-06T14:34:45;15.20;99.90
7518;DHT22;3800;48.922;9.444;2023-08-06T14:37:14;15.20;99.90
7518;DHT22;3800;48.922;9.444;2023-08-06T14:39:42;15.20;99.90
7518;DHT22;3800;48.922;9.444;2023-08-06T14:42:10;15.10;99.90
7518;DHT22;3800;48.922;9.444;2023-08-06T14:44:39;15.00;99.90
7518;DHT22;3800;48.922;9.444;2023-08-06T14:47:07;15.00;99.90
7518;DHT22;3800;48.922;9.444;2023-08-06T14:49:35;14.90;99.90
7518;DHT22;3800;48.922;9.444;2023-08-06T14:52:04;14.80;99.90
7518;DHT22;3800;48.922;9.444;2023-08-06T14:54:33;14.70;99.90
7518;DHT22;3800;48.922;9.444;2023-08-06T14:57:02;14.40;99.90
7518;DHT22;3800;48.922;9.444;2023-08-06T14:59:31;14.40;99.90
7518;DHT22;3800;48.922;9.444;2023-08-06T15:01:59;14.30;99.90
7518;DHT22;3800;48.922;9.444;2023-08-06T15:04:27;14.10;99.90
7518;DHT22;3800;48.922;9.444;2023-08-06T15:06:55;14.00;99.90
7518;DHT22;3800;48.922;9.444;2023-08-06T15:09:24;13.90;99.90
7518;DHT22;3800;48.922;9.444;2023-08-06T15:11:52;13.80;99.90
7518;DHT22;3800;48.922;9.444;2023-08-06T15:14:20;13.80;99.90
7518;DHT22;3800;48.922;9.444;2023-08-06T15:16:50;13.80;99.90
7518;DHT22;3800;48.922;9.444;2023-08-06T15:19:18;13.80;99.90
7518;DHT22;3800;48.922;9.444;2023-08-06T15:21:46;13.90;99.90
7518;DHT22;3800;48.922;9.444;2023-08-06T15:24:15;14.00;99.90
7518;DHT22;3800;48.922;9.444;2023-08-06T15:26:43;14.10;99.90
7518;DHT22;3800;48.922;9.444;2023-08-06T15:29:12;14.20;99.90
7518;DHT22;3800;48.922;9.444;2023-08-06T15:31:40;14.30;99.90
7518;DHT22;3800;48.922;9.444;2023-08-06T15:34:08;14.40;99.90
7518;DHT22;3800;48.922;9.444;2023-08-06T15:36:38;14.40;99.90
7518;DHT22;3800;48.922;9.444;2023-08-06T15:39:06;14.30;99.90
7518;DHT22;3800;48.922;9.444;2023-08-06T15:41:34;14.30;99.90
7518;DHT22;3800;48.922;9.444;2023-08-06T15:44:03;14.20;99.90
7518;DHT22;3800;48.922;9.444;2023-08-06T15:46:32;14.20;99.90
7518;DHT22;3800;48.922;9.444;2023-08-06T15:49:01;14.10;99.90
7518;DHT22;3800;48.922;9.444;2023-08-06T15:51:29;14.10;99.90
7518;DHT22;3800;48.922;9.444;2023-08-06T15:53:57;14.10;99.90
7518;DHT22;3800;48.922;9.444;2023-08-06T15:56:25;14.10;99.90
7518;DHT22;3800;48.922;9.444;2023-08-06T15:58:54;14.10;99.90
7518;DHT22;3800;48.922;9.444;2023-08-06T16:01:23;14.10;99.90
7518;DHT22;3800;48.922;9.444;2023-08-06T16:03:52;14.10;99.90
7518;DHT22;3800;48.922;9.444;2023-08-06T16:06:20;14.10;99.90
7518;DHT22;3800;48.922;9.444;2023-08-06T16:08:49;14.10;99.90
7518;DHT22;3800;48.922;9.444;2023-08-06T16:11:17;14.10;99.90
7518;DHT22;3800;48.922;9.444;2023-08-06T16:13:46;14.00;99.90